SOHO CELIAS Proton Monitor
Solar Wind Parameters for Carrington Rotation 1972 (hour averages)


Listed Parameters:

Measurement time (Year, Day of Year, Hour, Minute, Second)
Proton speed [km/sec]
Proton density [protons per cubic centimeter]
Most probable proton thermal speed [km/sec]
Arrival direction [degrees from north-south, with + meaning FROM the south).
(SPEED=-1 means NOT AVAILABLE)

SOHO spacecraft coordinates: based on SOHO PRE orbit files
GSE X, Y, Z [Earth Radii] 1 RE == 6378 km
Heliocentric Range [106 km],
Heliographic Latitude and Longitude [deg].

FORMAT=(1X,I2,1X,I3,1X,I2,1X,I2,1X,I2,F7.1,3F7.2,3X,3F7.1,F7.1,F7.2,F8.2)



                              CELIAS/MTOF/PM DATA                      SOHO ORBIT DATA              
 InSitu_Start__Time       [km/s]  [cm-3] [km/s]  [deg]      [Re]   [Re]   [Re]  [Mkm]  [deg]  [deg]
 YY MON DY DOY:HH:MM:SS   SPEED     Np     Vth    N/S      GSE_X  GSE_Y  GSE_Z  RANGE  HGLAT  HGLONG
 01 JAN 17  17:12:00:00     358   16.3      25    2.2      194.1  -38.8   15.4  145.9   -4.8   360.0
 01 JAN 17  17:13:00:00     359   15.4      25    3.7      194.1  -38.7   15.4  145.9   -4.8   359.0
 01 JAN 17  17:14:00:00     387   12.5      32    1.1      194.1  -38.5   15.4  145.9   -4.8   358.4
 01 JAN 17  17:15:00:00     390   13.5      33    0.3      194.1  -38.4   15.5  145.9   -4.8   357.9
 01 JAN 17  17:16:00:00     419   21.2      38   -1.5      194.1  -38.2   15.5  145.9   -4.8   357.3
 01 JAN 17  17:17:00:00     418   21.5      38   -2.9      194.1  -38.1   15.5  145.9   -4.8   356.8
 01 JAN 17  17:18:00:00     401   16.8      38   -2.6      194.1  -37.9   15.5  145.9   -4.8   356.2
 01 JAN 17  17:19:00:00     406   19.7      41   -3.0      194.1  -37.8   15.5  145.9   -4.8   355.7
 01 JAN 17  17:20:00:00     396   20.4      40   -3.5      194.1  -37.6   15.5  145.9   -4.8   355.1
 01 JAN 17  17:21:00:00     373   20.0      34   -5.3      194.1  -37.4   15.5  145.9   -4.8   354.6
 01 JAN 17  17:22:00:00     364   17.9      31   -5.7      194.1  -37.3   15.5  145.9   -4.8   354.0
 01 JAN 17  17:23:00:00     357   18.2      30   -5.8      194.1  -37.1   15.5  145.9   -4.8   353.5
 01 JAN 18  18:00:00:00     347   17.7      29   -5.6      194.1  -37.0   15.6  145.9   -4.8   352.9
 01 JAN 18  18:01:00:00     340   19.5      28   -5.8      194.1  -36.8   15.6  145.9   -4.8   352.4
 01 JAN 18  18:02:00:00     340   13.7      27   -4.9      194.1  -36.7   15.6  145.9   -4.8   351.8
 01 JAN 18  18:03:00:00     338   11.0      26   -4.2      194.1  -36.5   15.6  145.9   -4.8   351.3
 01 JAN 18  18:04:00:00     335    8.6      25   -3.4      194.1  -36.4   15.6  145.9   -4.9   350.7
 01 JAN 18  18:05:00:00     334    7.9      25   -2.3      194.1  -36.2   15.6  145.9   -4.9   350.2
 01 JAN 18  18:06:00:00     341    6.7      27    0.2      194.1  -36.0   15.6  145.9   -4.9   349.6
 01 JAN 18  18:07:00:00     342    4.2      27   -0.4      194.1  -35.9   15.6  145.9   -4.9   349.1
 01 JAN 18  18:08:00:00     337    4.7      26   -0.3      194.1  -35.7   15.7  145.9   -4.9   348.5
 01 JAN 18  18:09:00:00     356    7.9      32    1.0      194.1  -35.6   15.7  146.0   -4.9   348.0
 01 JAN 18  18:10:00:00     343    7.1      28    0.3      194.1  -35.4   15.7  146.0   -4.9   347.4
 01 JAN 18  18:11:00:00     327    4.8      23   -1.2      194.1  -35.3   15.7  146.0   -4.9   346.9
 01 JAN 18  18:12:00:00     340   10.8      28    0.7      194.1  -35.1   15.7  146.0   -4.9   346.3
 01 JAN 18  18:13:00:00     343    9.2      29   -1.3      194.1  -35.0   15.7  146.0   -4.9   345.8
 01 JAN 18  18:14:00:00     352    9.3      31   -1.4      194.1  -34.8   15.7  146.0   -4.9   345.2
 01 JAN 18  18:15:00:00     355    8.7      31   -1.3      194.1  -34.6   15.7  146.0   -4.9   344.7
 01 JAN 18  18:16:00:00     355    7.9      31   -0.8      194.1  -34.5   15.7  146.0   -4.9   344.1
 01 JAN 18  18:17:00:00     351    8.3      29   -0.6      194.1  -34.3   15.8  146.0   -4.9   343.6
 01 JAN 18  18:18:00:00     347    9.2      27   -0.6      194.1  -34.2   15.8  146.0   -4.9   343.0
 01 JAN 18  18:19:00:00     339    4.7      25    0.9      194.1  -34.0   15.8  146.0   -4.9   342.5
 01 JAN 18  18:20:00:00     342    5.0      26    1.8      194.1  -33.9   15.8  146.0   -4.9   341.9
 01 JAN 18  18:21:00:00     350    5.6      27    1.8      194.1  -33.7   15.8  146.0   -4.9   341.4
 01 JAN 18  18:22:00:00     356    5.7      27    1.4      194.1  -33.5   15.8  146.0   -4.9   340.8
 01 JAN 18  18:23:00:00     344    5.4      24   -1.4      194.1  -33.4   15.8  146.0   -4.9   340.3
 01 JAN 19  19:00:00:00     347    5.8      24   -0.5      194.1  -33.2   15.8  146.0   -4.9   339.7
 01 JAN 19  19:01:00:00     352    5.3      25   -0.9      194.1  -33.1   15.8  146.0   -4.9   339.2
 01 JAN 19  19:02:00:00     343    7.7      26   -1.4      194.1  -32.9   15.9  146.0   -4.9   338.6
 01 JAN 19  19:03:00:00     325   14.3      24   -1.4      194.1  -32.7   15.9  146.0   -4.9   338.1
 01 JAN 19  19:04:00:00     323   13.5      24   -1.6      194.1  -32.6   15.9  146.0   -4.9   337.5
 01 JAN 19  19:05:00:00     331   11.2      25   -1.7      194.1  -32.4   15.9  146.0   -4.9   337.0
 01 JAN 19  19:06:00:00     337    8.2      25   -1.9      194.1  -32.3   15.9  146.0   -5.0   336.4
 01 JAN 19  19:07:00:00     335    7.6      25   -1.9      194.1  -32.1   15.9  146.0   -5.0   335.9
 01 JAN 19  19:08:00:00     329    9.0      25   -1.6      194.1  -31.9   15.9  146.0   -5.0   335.3
 01 JAN 19  19:09:00:00     323    9.5      24   -1.5      194.1  -31.8   15.9  146.0   -5.0   334.8
 01 JAN 19  19:10:00:00     324    8.4      24   -1.3      194.1  -31.6   15.9  146.0   -5.0   334.2
 01 JAN 19  19:11:00:00     325    8.5      24   -1.3      194.1  -31.5   15.9  146.0   -5.0   333.7
 01 JAN 19  19:12:00:00     323    9.9      24   -0.8      194.1  -31.3   16.0  146.0   -5.0   333.1
 01 JAN 19  19:13:00:00     325    9.0      24   -1.2      194.1  -31.1   16.0  146.0   -5.0   332.6
 01 JAN 19  19:14:00:00     327    8.1      23   -0.9      194.1  -31.0   16.0  146.0   -5.0   332.0
 01 JAN 19  19:15:00:00     329    5.7      24   -0.2      194.1  -30.8   16.0  146.0   -5.0   331.5
 01 JAN 19  19:16:00:00     327    6.3      24   -0.7      194.1  -30.7   16.0  146.0   -5.0   330.9
 01 JAN 19  19:17:00:00     322    8.9      23   -0.5      194.1  -30.5   16.0  146.0   -5.0   330.4
 01 JAN 19  19:18:00:00     324    8.0      23   -0.9      194.1  -30.3   16.0  146.0   -5.0   329.8
 01 JAN 19  19:19:00:00     327    9.3      23   -0.1      194.1  -30.2   16.0  146.0   -5.0   329.3
 01 JAN 19  19:20:00:00     326    8.9      23   -0.1      194.1  -30.0   16.0  146.0   -5.0   328.7
 01 JAN 19  19:21:00:00     324   11.7      22   -0.4      194.1  -29.9   16.0  146.0   -5.0   328.2
 01 JAN 19  19:22:00:00     321   12.9      22   -0.1      194.1  -29.7   16.1  146.0   -5.0   327.6
 01 JAN 19  19:23:00:00     319   11.7      22    0.2      194.1  -29.5   16.1  146.0   -5.0   327.1
 01 JAN 20  20:00:00:00     320   12.0      22    0.1      194.1  -29.4   16.1  146.0   -5.0   326.5
 01 JAN 20  20:01:00:00     320   12.4      22    0.1      194.1  -29.2   16.1  146.0   -5.0   326.0
 01 JAN 20  20:02:00:00     321   13.5      22   -0.3      194.1  -29.1   16.1  146.0   -5.0   325.4
 01 JAN 20  20:03:00:00     321   14.7      22   -0.3      194.1  -28.9   16.1  146.0   -5.0   324.9
 01 JAN 20  20:04:00:00     318   14.6      21   -0.2      194.1  -28.7   16.1  146.0   -5.0   324.3
 01 JAN 20  20:05:00:00     313   12.3      20   -2.4      194.1  -28.6   16.1  146.0   -5.0   323.8
 01 JAN 20  20:06:00:00     312   12.3      20   -2.9      194.1  -28.4   16.1  146.0   -5.0   323.2
 01 JAN 20  20:07:00:00     315   12.1      21   -2.6      194.1  -28.2   16.1  146.0   -5.0   322.7
 01 JAN 20  20:08:00:00     310    8.3      20   -3.2      194.1  -28.1   16.1  146.0   -5.1   322.1
 01 JAN 20  20:09:00:00     306    5.2      19   -1.4      194.1  -27.9   16.2  146.0   -5.1   321.6
 01 JAN 20  20:10:00:00     309    6.4      20   -0.1      194.1  -27.8   16.2  146.0   -5.1   321.0
 01 JAN 20  20:11:00:00     318    8.4      21    0.9      194.1  -27.6   16.2  146.0   -5.1   320.5
 01 JAN 20  20:12:00:00     318   12.1      21    1.2      194.1  -27.4   16.2  146.0   -5.1   319.9
 01 JAN 20  20:13:00:00     314   14.5      19    2.6      194.1  -27.3   16.2  146.0   -5.1   319.4
 01 JAN 20  20:14:00:00     311   14.1      19    1.9      194.1  -27.1   16.2  146.0   -5.1   318.8
 01 JAN 20  20:15:00:00     311   15.7      19    2.2      194.1  -26.9   16.2  146.0   -5.1   318.3
 01 JAN 20  20:16:00:00     311   17.5      19    2.5      194.1  -26.8   16.2  146.0   -5.1   317.7
 01 JAN 20  20:17:00:00     311   22.4      20    4.2      194.1  -26.6   16.2  146.0   -5.1   317.2
 01 JAN 20  20:18:00:00     323   13.9      22    1.1      194.1  -26.4   16.2  146.0   -5.1   316.6
 01 JAN 20  20:19:00:00     314    8.8      20    0.4      194.1  -26.3   16.2  146.0   -5.1   316.1
 01 JAN 20  20:20:00:00     307    8.7      19    0.1      194.1  -26.1   16.2  146.0   -5.1   315.5
 01 JAN 20  20:21:00:00     311    8.2      20   -1.6      194.1  -26.0   16.3  146.0   -5.1   315.0
 01 JAN 20  20:22:00:00     318   17.8      20   -3.0      194.1  -25.8   16.3  146.0   -5.1   314.4
 01 JAN 20  20:23:00:00     315   18.4      20   -4.9      194.1  -25.6   16.3  146.0   -5.1   313.9
 01 JAN 21  21:00:00:00     312   18.7      19   -5.3      194.1  -25.5   16.3  146.0   -5.1   313.3
 01 JAN 21  21:01:00:00     323    8.2      22   -3.4      194.1  -25.3   16.3  146.0   -5.1   312.8
 01 JAN 21  21:02:00:00     333   10.8      25   -0.3      194.1  -25.1   16.3  146.0   -5.1   312.2
 01 JAN 21  21:03:00:00     313   11.0      20   -0.4      194.1  -25.0   16.3  146.0   -5.1   311.7
 01 JAN 21  21:04:00:00     312   10.3      20   -0.2      194.1  -24.8   16.3  146.0   -5.1   311.1
 01 JAN 21  21:05:00:00     307    9.8      19    0.4      194.1  -24.6   16.3  146.0   -5.1   310.6
 01 JAN 21  21:06:00:00     310   11.4      19    1.3      194.1  -24.5   16.3  146.0   -5.1   310.0
 01 JAN 21  21:07:00:00     311   13.3      20   -0.1      194.1  -24.3   16.3  146.0   -5.1   309.5
 01 JAN 21  21:08:00:00     311   13.7      20   -0.1      194.1  -24.1   16.3  146.0   -5.1   308.9
 01 JAN 21  21:09:00:00     314   12.6      20   -1.9      194.2  -24.0   16.3  146.0   -5.1   308.4
 01 JAN 21  21:10:00:00     307    9.6      19   -2.1      194.2  -23.8   16.4  146.0   -5.1   307.8
 01 JAN 21  21:11:00:00     312   15.1      19   -2.4      194.2  -23.7   16.4  146.0   -5.2   307.3
 01 JAN 21  21:12:00:00     311   13.6      19   -3.3      194.2  -23.5   16.4  146.0   -5.2   306.7
 01 JAN 21  21:13:00:00     315   12.9      20   -3.1      194.2  -23.3   16.4  146.0   -5.2   306.2
 01 JAN 21  21:14:00:00     319   13.6      20   -0.2      194.2  -23.2   16.4  146.0   -5.2   305.6
 01 JAN 21  21:15:00:00     324    7.6      21   -0.8      194.2  -23.0   16.4  146.0   -5.2   305.1
 01 JAN 21  21:16:00:00     328    8.8      22   -0.6      194.2  -22.8   16.4  146.0   -5.2   304.5
 01 JAN 21  21:17:00:00     326   18.7      21    2.1      194.2  -22.7   16.4  146.0   -5.2   304.0
 01 JAN 21  21:18:00:00     325   19.6      20    2.6      194.2  -22.5   16.4  146.0   -5.2   303.4
 01 JAN 21  21:19:00:00     346   27.6      23    2.8      194.2  -22.3   16.4  146.0   -5.2   302.9
 01 JAN 21  21:20:00:00     352   36.0      25    3.4      194.2  -22.2   16.4  146.0   -5.2   302.3
 01 JAN 21  21:21:00:00     357   39.1      23    3.5      194.2  -22.0   16.4  146.0   -5.2   301.7
 01 JAN 21  21:22:00:00     357   29.3      31    2.1      194.2  -21.8   16.4  146.0   -5.2   301.2
 01 JAN 21  21:23:00:00     369   20.6      37    2.5      194.2  -21.7   16.4  146.0   -5.2   300.6
 01 JAN 22  22:00:00:00     371   19.3      37    1.2      194.2  -21.5   16.5  146.0   -5.2   300.1
 01 JAN 22  22:01:00:00     381   24.9      40    3.7      194.2  -21.3   16.5  146.0   -5.2   299.5
 01 JAN 22  22:02:00:00     376   20.2      36    3.5      194.2  -21.2   16.5  146.0   -5.2   299.0
 01 JAN 22  22:03:00:00     367   21.2      35    4.5      194.2  -21.0   16.5  146.0   -5.2   298.4
 01 JAN 22  22:04:00:00     370   17.4      38    1.2      194.2  -20.8   16.5  146.0   -5.2   297.9
 01 JAN 22  22:05:00:00     391   18.5      43   -1.7      194.2  -20.7   16.5  146.0   -5.2   297.3
 01 JAN 22  22:06:00:00     402   15.6      44   -1.2      194.2  -20.5   16.5  146.0   -5.2   296.8
 01 JAN 22  22:07:00:00     419   13.4      44   -2.4      194.2  -20.3   16.5  146.0   -5.2   296.2
 01 JAN 22  22:08:00:00     425   13.6      41   -3.1      194.2  -20.2   16.5  146.0   -5.2   295.7
 01 JAN 22  22:09:00:00     433   14.3      40   -4.3      194.2  -20.0   16.5  146.0   -5.2   295.1
 01 JAN 22  22:10:00:00     425   10.1      38   -2.4      194.2  -19.8   16.5  146.0   -5.2   294.6
 01 JAN 22  22:11:00:00     424    8.5      40    0.3      194.2  -19.7   16.5  146.0   -5.2   294.0
 01 JAN 22  22:12:00:00     444    9.1      52   -1.6      194.2  -19.5   16.5  146.0   -5.2   293.5
 01 JAN 22  22:13:00:00     456    9.0      47   -2.2      194.2  -19.3   16.5  146.0   -5.2   292.9
 01 JAN 22  22:14:00:00     464    7.9      49   -0.6      194.2  -19.2   16.5  146.0   -5.3   292.4
 01 JAN 22  22:15:00:00     467    7.2      48   -1.9      194.2  -19.0   16.5  146.0   -5.3   291.8
 01 JAN 22  22:16:00:00     471    6.8      48   -2.6      194.2  -18.8   16.5  146.0   -5.3   291.3
 01 JAN 22  22:17:00:00     469    6.3      52   -1.6      194.2  -18.6   16.6  146.0   -5.3   290.7
 01 JAN 22  22:18:00:00     470    5.9      49   -1.2      194.2  -18.5   16.6  146.0   -5.3   290.2
 01 JAN 22  22:19:00:00     467    5.1      50   -1.5      194.2  -18.3   16.6  146.0   -5.3   289.6
 01 JAN 22  22:20:00:00     469    6.1      45   -2.9      194.2  -18.1   16.6  146.0   -5.3   289.1
 01 JAN 22  22:21:00:00     465    5.1      42   -2.1      194.2  -18.0   16.6  146.0   -5.3   288.5
 01 JAN 22  22:22:00:00     463    4.3      46   -1.1      194.2  -17.8   16.6  146.0   -5.3   288.0
 01 JAN 22  22:23:00:00     448    4.1      45   -0.2      194.2  -17.6   16.6  146.0   -5.3   287.4
 01 JAN 23  23:00:00:00     450    4.4      42   -0.3      194.2  -17.5   16.6  146.0   -5.3   286.9
 01 JAN 23  23:01:00:00     454    4.5      41   -0.5      194.2  -17.3   16.6  146.0   -5.3   286.3
 01 JAN 23  23:02:00:00     459    4.4      42   -0.2      194.2  -17.1   16.6  146.0   -5.3   285.8
 01 JAN 23  23:03:00:00     443    4.6      45    0.4      194.2  -17.0   16.6  146.0   -5.3   285.2
 01 JAN 23  23:04:00:00     436    4.2      44   -0.9      194.2  -16.8   16.6  146.0   -5.3   284.7
 01 JAN 23  23:05:00:00     441    4.1      44   -0.1      194.2  -16.6   16.6  146.0   -5.3   284.1
 01 JAN 23  23:06:00:00     427    3.7      40    0.5      194.2  -16.5   16.6  146.0   -5.3   283.6
 01 JAN 23  23:07:00:00     411    3.8      35   -2.0      194.2  -16.3   16.6  146.0   -5.3   283.0
 01 JAN 23  23:08:00:00     403    3.4      32   -0.1      194.2  -16.1   16.6  146.0   -5.3   282.5
 01 JAN 23  23:09:00:00     401    3.6      31    0.3      194.2  -16.0   16.6  146.0   -5.3   281.9
 01 JAN 23  23:10:00:00     527   11.0      57    0.2      194.2  -15.8   16.6  146.0   -5.3   281.4
 01 JAN 23  23:11:00:00     567   10.5      53    0.8      194.2  -15.6   16.6  146.0   -5.3   280.8
 01 JAN 23  23:12:00:00     559   11.2      48    1.6      194.2  -15.4   16.7  146.0   -5.3   280.3
 01 JAN 23  23:13:00:00     555   11.1      45    0.4      194.2  -15.3   16.7  146.0   -5.3   279.7
 01 JAN 23  23:14:00:00     538   12.6      47    1.3      194.2  -15.1   16.7  146.0   -5.3   279.2
 01 JAN 23  23:15:00:00     528   13.4      47    1.5      194.2  -14.9   16.7  146.0   -5.3   278.6
 01 JAN 23  23:16:00:00     518   14.9      48    2.0      194.2  -14.8   16.7  146.0   -5.3   278.1
 01 JAN 23  23:17:00:00     510   14.3      48    0.6      194.2  -14.6   16.7  146.0   -5.3   277.5
 01 JAN 23  23:18:00:00     531   14.6      47    0.1      194.2  -14.4   16.7  146.0   -5.4   277.0
 01 JAN 23  23:19:00:00     491   14.2      46   -0.9      194.2  -14.3   16.7  146.0   -5.4   276.4
 01 JAN 23  23:20:00:00     495   16.2      42    1.1      194.2  -14.1   16.7  146.0   -5.4   275.9
 01 JAN 23  23:21:00:00     495   17.9      39    1.8      194.2  -13.9   16.7  146.0   -5.4   275.3
 01 JAN 23  23:22:00:00     477   17.1      36   -0.3      194.2  -13.8   16.7  146.0   -5.4   274.8
 01 JAN 23  23:23:00:00     471   16.9      35   -0.6      194.2  -13.6   16.7  146.0   -5.4   274.2
 01 JAN 24  24:00:00:00     474   12.9      33   -2.2      194.2  -13.4   16.7  146.0   -5.4   273.7
 01 JAN 24  24:01:00:00     465   12.9      33   -0.8      194.2  -13.2   16.7  146.0   -5.4   273.1
 01 JAN 24  24:02:00:00     452   13.7      29   -0.8      194.2  -13.1   16.7  146.0   -5.4   272.6
 01 JAN 24  24:03:00:00     448   11.1      26   -0.9      194.2  -12.9   16.7  146.0   -5.4   272.0
 01 JAN 24  24:04:00:00     445    7.8      25   -0.5      194.2  -12.7   16.7  146.0   -5.4   271.5
 01 JAN 24  24:05:00:00     436    6.0      30    0.2      194.2  -12.6   16.7  146.0   -5.4   270.9
 01 JAN 24  24:06:00:00     424    4.5      32    0.4      194.2  -12.4   16.7  146.0   -5.4   270.4
 01 JAN 24  24:07:00:00     407    4.0      31    0.7      194.2  -12.2   16.7  146.0   -5.4   269.8
 01 JAN 24  24:08:00:00     401    4.6      30    0.7      194.2  -12.1   16.7  146.0   -5.4   269.3
 01 JAN 24  24:09:00:00     383    5.6      26    0.5      194.2  -11.9   16.7  146.0   -5.4   268.7
 01 JAN 24  24:10:00:00     408    3.5      38   -1.1      194.2  -11.7   16.7  146.0   -5.4   268.2
 01 JAN 24  24:11:00:00     436    2.3      42   -1.8      194.2  -11.5   16.7  146.0   -5.4   267.6
 01 JAN 24  24:12:00:00     466    2.3      49   -1.0      194.2  -11.4   16.7  146.0   -5.4   267.1
 01 JAN 24  24:13:00:00     426    6.4      44    0.2      194.1  -11.2   16.8  146.0   -5.4   266.5
 01 JAN 24  24:14:00:00     433    5.1      45    0.5      194.1  -11.0   16.8  146.0   -5.4   266.0
 01 JAN 24  24:15:00:00     448    4.3      48   -0.3      194.1  -10.9   16.8  146.0   -5.4   265.4
 01 JAN 24  24:16:00:00     456    4.9      47    0.4      194.1  -10.7   16.8  146.0   -5.4   264.9
 01 JAN 24  24:17:00:00     433    4.5      43    1.0      194.1  -10.5   16.8  146.0   -5.4   264.3
 01 JAN 24  24:18:00:00     447    5.1      43    0.8      194.1  -10.4   16.8  146.0   -5.4   263.8
 01 JAN 24  24:19:00:00     430    6.4      41    0.9      194.1  -10.2   16.8  146.0   -5.4   263.2
 01 JAN 24  24:20:00:00     421    6.8      39    1.2      194.1  -10.0   16.8  146.0   -5.4   262.7
 01 JAN 24  24:21:00:00     403    6.8      32    2.1      194.1   -9.8   16.8  146.0   -5.4   262.1
 01 JAN 24  24:22:00:00     406    6.1      34   -0.4      194.1   -9.7   16.8  146.0   -5.4   261.6
 01 JAN 24  24:23:00:00     414    5.5      37    0.1      194.1   -9.5   16.8  146.0   -5.5   261.0
 01 JAN 25  25:00:00:00     413    6.1      36    0.2      194.1   -9.3   16.8  146.0   -5.5   260.5
 01 JAN 25  25:01:00:00     416    6.2      37   -0.2      194.1   -9.2   16.8  146.0   -5.5   259.9
 01 JAN 25  25:02:00:00     406    6.7      33    0.3      194.1   -9.0   16.8  146.0   -5.5   259.4
 01 JAN 25  25:03:00:00     407    6.8      33    1.5      194.1   -8.8   16.8  146.0   -5.5   258.8
 01 JAN 25  25:04:00:00     399    6.4      31    0.7      194.1   -8.6   16.8  146.0   -5.5   258.3
 01 JAN 25  25:05:00:00     389    6.1      27   -0.7      194.1   -8.5   16.8  146.0   -5.5   257.7
 01 JAN 25  25:06:00:00     381    5.8      25   -1.5      194.1   -8.3   16.8  146.0   -5.5   257.2
 01 JAN 25  25:07:00:00     384    4.9      26    0.4      194.1   -8.1   16.8  146.0   -5.5   256.6
 01 JAN 25  25:08:00:00     381    5.2      25    0.4      194.1   -8.0   16.8  146.1   -5.5   256.1
 01 JAN 25  25:09:00:00     379    4.4      25    0.7      194.1   -7.8   16.8  146.1   -5.5   255.5
 01 JAN 25  25:10:00:00     389    4.2      28   -0.7      194.1   -7.6   16.8  146.1   -5.5   255.0
 01 JAN 25  25:11:00:00     396    4.4      30   -1.6      194.1   -7.5   16.8  146.1   -5.5   254.4
 01 JAN 25  25:12:00:00     392    4.7      29   -1.8      194.1   -7.3   16.8  146.1   -5.5   253.9
 01 JAN 25  25:13:00:00     390    4.5      28   -1.9      194.1   -7.1   16.8  146.1   -5.5   253.3
 01 JAN 25  25:14:00:00     388    3.7      27   -1.4      194.1   -6.9   16.8  146.1   -5.5   252.8
 01 JAN 25  25:15:00:00     380    3.6      25   -1.2      194.1   -6.8   16.8  146.1   -5.5   252.2
 01 JAN 25  25:16:00:00     376    4.0      24   -0.7      194.1   -6.6   16.8  146.1   -5.5   251.7
 01 JAN 25  25:17:00:00     378    5.2      24   -0.3      194.1   -6.4   16.8  146.1   -5.5   251.1
 01 JAN 25  25:18:00:00     376    4.4      24   -1.5      194.1   -6.3   16.8  146.1   -5.5   250.6
 01 JAN 25  25:19:00:00     367    4.7      23   -1.9      194.1   -6.1   16.8  146.1   -5.5   250.0
 01 JAN 25  25:20:00:00     360    5.5      22   -1.4      194.1   -5.9   16.8  146.1   -5.5   249.5
 01 JAN 25  25:21:00:00     356    5.3      23   -1.2      194.1   -5.7   16.8  146.1   -5.5   248.9
 01 JAN 25  25:22:00:00     340    4.0      23   -1.5      194.1   -5.6   16.8  146.1   -5.5   248.4
 01 JAN 25  25:23:00:00     341    4.6      25    0.2      194.1   -5.4   16.8  146.1   -5.5   247.8
 01 JAN 26  26:00:00:00     343    5.6      25    1.1      194.1   -5.2   16.8  146.1   -5.5   247.3
 01 JAN 26  26:01:00:00     340    9.6      28    0.8      194.1   -5.1   16.8  146.1   -5.5   246.7
 01 JAN 26  26:02:00:00     357    4.6      27    0.3      194.1   -4.9   16.8  146.1   -5.5   246.2
 01 JAN 26  26:03:00:00     367    3.7      24    0.7      194.1   -4.7   16.8  146.1   -5.5   245.6
 01 JAN 26  26:04:00:00     364    3.5      23   -1.3      194.1   -4.5   16.8  146.1   -5.6   245.1
 01 JAN 26  26:05:00:00     369    4.2      24   -0.8      194.1   -4.4   16.8  146.1   -5.6   244.5
 01 JAN 26  26:06:00:00     360    3.5      23   -1.1      194.1   -4.2   16.8  146.1   -5.6   244.0
 01 JAN 26  26:07:00:00     361    4.4      23   -1.0      194.1   -4.0   16.8  146.1   -5.6   243.4
 01 JAN 26  26:08:00:00     366    4.6      29   -1.9      194.1   -3.9   16.8  146.1   -5.6   242.9
 01 JAN 26  26:09:00:00     371    3.5      27   -1.5      194.1   -3.7   16.8  146.1   -5.6   242.3
 01 JAN 26  26:10:00:00     375    3.8      28   -1.6      194.1   -3.5   16.8  146.1   -5.6   241.8
 01 JAN 26  26:11:00:00     360    3.7      30   -2.0      194.1   -3.3   16.8  146.1   -5.6   241.2
 01 JAN 26  26:12:00:00     330    7.0      26   -2.1      194.1   -3.2   16.8  146.1   -5.6   240.7
 01 JAN 26  26:13:00:00     323   11.2      24   -2.5      194.1   -3.0   16.8  146.1   -5.6   240.1
 01 JAN 26  26:14:00:00     332    7.4      26   -2.1      194.1   -2.8   16.8  146.1   -5.6   239.6
 01 JAN 26  26:15:00:00     331    6.8      26   -2.1      194.1   -2.7   16.8  146.1   -5.6   239.0
 01 JAN 26  26:16:00:00     334    7.1      26   -1.7      194.1   -2.5   16.8  146.1   -5.6   238.5
 01 JAN 26  26:17:00:00     323   11.5      23    1.3      194.1   -2.3   16.9  146.1   -5.6   237.9
 01 JAN 26  26:18:00:00     323   12.3      23   -0.5      194.1   -2.2   16.9  146.1   -5.6   237.4
 01 JAN 26  26:19:00:00     323    9.8      23   -3.6      194.1   -2.0   16.9  146.1   -5.6   236.8
 01 JAN 26  26:20:00:00     329    6.3      24    1.9      194.1   -1.8   16.9  146.1   -5.6   236.3
 01 JAN 26  26:21:00:00     331    5.2      25    1.9      194.1   -1.6   16.9  146.1   -5.6   235.7
 01 JAN 26  26:22:00:00     330    8.4      25   -1.4      194.1   -1.5   16.9  146.1   -5.6   235.2
 01 JAN 26  26:23:00:00     321   10.6      23   -1.5      194.1   -1.3   16.9  146.1   -5.6   234.6
 01 JAN 27  27:00:00:00     324    8.8      24   -1.6      194.1   -1.1   16.9  146.1   -5.6   234.1
 01 JAN 27  27:01:00:00     331    6.2      25   -1.9      194.1   -1.0   16.9  146.1   -5.6   233.5
 01 JAN 27  27:02:00:00     334    4.8      26   -1.5      194.1   -0.8   16.9  146.1   -5.6   233.0
 01 JAN 27  27:03:00:00     329    5.5      25   -2.0      194.1   -0.6   16.9  146.1   -5.6   232.4
 01 JAN 27  27:04:00:00     325    5.0      24   -2.0      194.1   -0.4   16.9  146.1   -5.6   231.9
 01 JAN 27  27:05:00:00     327    5.8      24    0.4      194.0   -0.3   16.9  146.1   -5.6   231.3
 01 JAN 27  27:06:00:00     332    5.3      25    0.9      194.0   -0.1   16.9  146.1   -5.6   230.8
 01 JAN 27  27:07:00:00     331    4.3      25   -0.5      194.0    0.1   16.9  146.1   -5.6   230.2
 01 JAN 27  27:08:00:00     330    4.8      25   -0.1      194.0    0.2   16.9  146.1   -5.6   229.7
 01 JAN 27  27:09:00:00     328    4.3      25   -0.6      194.0    0.4   16.9  146.1   -5.6   229.1
 01 JAN 27  27:10:00:00     327    4.4      25   -0.4      194.0    0.6   16.9  146.1   -5.7   228.6
 01 JAN 27  27:11:00:00     319    5.2      23   -0.7      194.0    0.7   16.9  146.1   -5.7   228.0
 01 JAN 27  27:12:00:00     323    3.8      24   -0.4      194.0    0.9   16.9  146.1   -5.7   227.5
 01 JAN 27  27:13:00:00     324    3.9      24    0.2      194.0    1.1   16.8  146.1   -5.7   226.9
 01 JAN 27  27:14:00:00     319    5.1      23    1.3      194.0    1.3   16.8  146.1   -5.7   226.4
 01 JAN 27  27:15:00:00     322    5.1      24   -0.2      194.0    1.4   16.8  146.1   -5.7   225.8
 01 JAN 27  27:16:00:00     320    6.2      23   -0.5      194.0    1.6   16.8  146.1   -5.7   225.3
 01 JAN 27  27:17:00:00     318    6.6      22   -0.5      194.0    1.8   16.8  146.1   -5.7   224.7
 01 JAN 27  27:18:00:00     315    7.6      21    0.6      194.0    1.9   16.8  146.1   -5.7   224.2
 01 JAN 27  27:19:00:00     317    7.2      22   -0.3      194.0    2.1   16.8  146.1   -5.7   223.6
 01 JAN 27  27:20:00:00     320    7.7      23    1.7      194.0    2.3   16.8  146.1   -5.7   223.1
 01 JAN 27  27:21:00:00     328    6.5      25    0.3      194.0    2.5   16.8  146.1   -5.7   222.5
 01 JAN 27  27:22:00:00     343    7.1      27    0.6      194.0    2.6   16.8  146.1   -5.7   222.0
 01 JAN 27  27:23:00:00     317    8.1      22    0.2      194.0    2.8   16.8  146.1   -5.7   221.4
 01 JAN 28  28:00:00:00     317    9.4      22   -0.1      194.0    3.0   16.8  146.1   -5.7   220.9
 01 JAN 28  28:01:00:00     315    9.4      21   -0.8      194.0    3.1   16.8  146.1   -5.7   220.3
 01 JAN 28  28:02:00:00     313    9.5      21   -1.7      194.0    3.3   16.8  146.1   -5.7   219.8
 01 JAN 28  28:03:00:00     326    5.3      23   -1.4      194.0    3.5   16.8  146.1   -5.7   219.2
 01 JAN 28  28:04:00:00     325    6.2      23   -0.4      194.0    3.6   16.8  146.1   -5.7   218.7
 01 JAN 28  28:05:00:00     327    5.6      23   -0.6      194.0    3.8   16.8  146.1   -5.7   218.1
 01 JAN 28  28:06:00:00     318    6.5      21   -0.1      194.0    4.0   16.8  146.1   -5.7   217.5
 01 JAN 28  28:07:00:00     312    6.4      20   -0.3      194.0    4.2   16.8  146.1   -5.7   217.0
 01 JAN 28  28:08:00:00     314    6.4      20    0.5      194.0    4.3   16.8  146.1   -5.7   216.4
 01 JAN 28  28:09:00:00     319    7.2      21    1.4      194.0    4.5   16.8  146.1   -5.7   215.9
 01 JAN 28  28:10:00:00     322    8.9      22    1.9      194.0    4.7   16.8  146.1   -5.7   215.3
 01 JAN 28  28:11:00:00     324   18.4      23    4.0      194.0    4.8   16.8  146.1   -5.7   214.8
 01 JAN 28  28:12:00:00     328   32.6      23    5.1      194.0    5.0   16.8  146.1   -5.7   214.2
 01 JAN 28  28:13:00:00     320   30.1      22    3.9      194.0    5.2   16.8  146.1   -5.7   213.7
 01 JAN 28  28:14:00:00     324   44.2      23    4.3      194.0    5.3   16.8  146.1   -5.7   213.1
 01 JAN 28  28:15:00:00     327   40.0      24    3.6      194.0    5.5   16.8  146.1   -5.7   212.6
 01 JAN 28  28:16:00:00     326   19.0      22    0.7      194.0    5.7   16.8  146.1   -5.7   212.0
 01 JAN 28  28:17:00:00     331   24.8      23    1.4      194.0    5.8   16.8  146.1   -5.8   211.5
 01 JAN 28  28:18:00:00     329   25.3      23    2.1      194.0    6.0   16.8  146.1   -5.8   210.9
 01 JAN 28  28:19:00:00     335   19.2      24    0.7      194.0    6.2   16.8  146.1   -5.8   210.4
 01 JAN 28  28:20:00:00     340   15.9      24   -0.2      193.9    6.4   16.8  146.1   -5.8   209.8
 01 JAN 28  28:21:00:00     350   22.1      31    0.7      193.9    6.5   16.8  146.1   -5.8   209.3
 01 JAN 28  28:22:00:00     359   25.2      36   -2.0      193.9    6.7   16.8  146.1   -5.8   208.7
 01 JAN 28  28:23:00:00     357   26.8      35   -1.5      193.9    6.9   16.8  146.1   -5.8   208.2
 01 JAN 29  29:00:00:00     361   32.2      36    1.5      193.9    7.0   16.8  146.1   -5.8   207.6
 01 JAN 29  29:01:00:00     360   25.6      30    4.4      193.9    7.2   16.8  146.1   -5.8   207.1
 01 JAN 29  29:02:00:00     383   12.9      28    0.1      193.9    7.4   16.8  146.1   -5.8   206.5
 01 JAN 29  29:03:00:00     380   17.9      27   -2.6      193.9    7.5   16.8  146.1   -5.8   206.0
 01 JAN 29  29:04:00:00     383   18.6      28   -2.1      193.9    7.7   16.8  146.1   -5.8   205.4
 01 JAN 29  29:05:00:00     389   10.4      34   -1.0      193.9    7.9   16.8  146.1   -5.8   204.9
 01 JAN 29  29:06:00:00     392    9.0      37   -0.1      193.9    8.0   16.8  146.1   -5.8   204.3
 01 JAN 29  29:07:00:00     396    9.3      39    1.1      193.9    8.2   16.8  146.1   -5.8   203.8
 01 JAN 29  29:08:00:00     395    8.7      38    0.5      193.9    8.4   16.8  146.1   -5.8   203.2
 01 JAN 29  29:09:00:00     392    9.1      37    0.8      193.9    8.6   16.8  146.1   -5.8   202.7
 01 JAN 29  29:10:00:00     386    8.8      37    0.2      193.9    8.7   16.8  146.1   -5.8   202.1
 01 JAN 29  29:11:00:00     392    8.4      35   -0.3      193.9    8.9   16.8  146.1   -5.8   201.6
 01 JAN 29  29:12:00:00     392    8.1      32   -1.4      193.9    9.1   16.8  146.1   -5.8   201.0
 01 JAN 29  29:13:00:00     404    8.5      38   -1.4      193.9    9.2   16.8  146.1   -5.8   200.5
 01 JAN 29  29:14:00:00     413    8.7      38   -1.3      193.9    9.4   16.8  146.1   -5.8   199.9
 01 JAN 29  29:15:00:00     415    7.0      37   -1.6      193.9    9.6   16.8  146.1   -5.8   199.4
 01 JAN 29  29:16:00:00     418    7.0      37   -2.4      193.9    9.7   16.8  146.1   -5.8   198.8
 01 JAN 29  29:17:00:00     436    6.4      43   -0.1      193.9    9.9   16.8  146.1   -5.8   198.3
 01 JAN 29  29:18:00:00     470    4.0      45   -0.3      193.9   10.1   16.7  146.1   -5.8   197.7
 01 JAN 29  29:19:00:00     467    4.2      46    0.6      193.9   10.2   16.7  146.1   -5.8   197.2
 01 JAN 29  29:20:00:00     448    4.8      47    0.4      193.9   10.4   16.7  146.1   -5.8   196.6
 01 JAN 29  29:21:00:00     446    5.3      46   -0.1      193.9   10.6   16.7  146.1   -5.8   196.1
 01 JAN 29  29:22:00:00     451    5.0      44   -1.8      193.9   10.7   16.7  146.1   -5.8   195.5
 01 JAN 29  29:23:00:00     455    5.6      42   -2.1      193.9   10.9   16.7  146.1   -5.8   195.0
 01 JAN 30  30:00:00:00     455    5.8      42   -1.4      193.9   11.1   16.7  146.1   -5.9   194.4
 01 JAN 30  30:01:00:00     446    5.9      42    0.6      193.9   11.2   16.7  146.1   -5.9   193.9
 01 JAN 30  30:02:00:00     444    6.0      39    0.1      193.9   11.4   16.7  146.1   -5.9   193.3
 01 JAN 30  30:03:00:00     447    5.8      38    0.2      193.9   11.6   16.7  146.1   -5.9   192.8
 01 JAN 30  30:04:00:00     456    5.9      38   -2.1      193.9   11.7   16.7  146.1   -5.9   192.2
 01 JAN 30  30:05:00:00     455    5.6      37   -2.2      193.9   11.9   16.7  146.1   -5.9   191.7
 01 JAN 30  30:06:00:00     454    5.2      37   -2.0      193.9   12.1   16.7  146.1   -5.9   191.1
 01 JAN 30  30:07:00:00     455    5.6      38   -3.0      193.9   12.2   16.7  146.1   -5.9   190.6
 01 JAN 30  30:08:00:00     442    5.1      38   -2.2      193.8   12.4   16.7  146.1   -5.9   190.0
 01 JAN 30  30:09:00:00     435    5.2      38   -2.1      193.8   12.6   16.7  146.1   -5.9   189.5
 01 JAN 30  30:10:00:00     435    5.5      38   -2.5      193.8   12.7   16.7  146.1   -5.9   188.9
 01 JAN 30  30:11:00:00     428    5.6      39   -2.6      193.8   12.9   16.7  146.1   -5.9   188.4
 01 JAN 30  30:12:00:00     435    5.6      37   -2.7      193.8   13.1   16.7  146.1   -5.9   187.8
 01 JAN 30  30:13:00:00     423    5.0      37   -1.5      193.8   13.2   16.7  146.1   -5.9   187.3
 01 JAN 30  30:14:00:00     413    4.3      34   -0.9      193.8   13.4   16.7  146.1   -5.9   186.7
 01 JAN 30  30:15:00:00     397    5.3      30   -1.6      193.8   13.6   16.7  146.1   -5.9   186.2
 01 JAN 30  30:16:00:00     391    5.6      28   -2.3      193.8   13.7   16.7  146.1   -5.9   185.6
 01 JAN 30  30:17:00:00     391    5.5      28   -2.5      193.8   13.9   16.7  146.1   -5.9   185.1
 01 JAN 30  30:18:00:00     390    5.5      28   -2.5      193.8   14.1   16.7  146.1   -5.9   184.5
 01 JAN 30  30:19:00:00     393    5.0      30   -2.1      193.8   14.2   16.7  146.1   -5.9   184.0
 01 JAN 30  30:20:00:00     393    4.8      31   -2.0      193.8   14.4   16.6  146.2   -5.9   183.4
 01 JAN 30  30:21:00:00     393    5.0      31   -1.5      193.8   14.6   16.6  146.2   -5.9   182.9
 01 JAN 30  30:22:00:00     390    5.0      30   -1.7      193.8   14.7   16.6  146.2   -5.9   182.3
 01 JAN 30  30:23:00:00     392    4.8      31   -1.3      193.8   14.9   16.6  146.2   -5.9   181.8
 01 JAN 31  31:00:00:00     391    4.7      32   -1.4      193.8   15.1   16.6  146.2   -5.9   181.2
 01 JAN 31  31:01:00:00     390    4.7      32   -1.4      193.8   15.2   16.6  146.2   -5.9   180.7
 01 JAN 31  31:02:00:00     383    5.0      30   -1.6      193.8   15.4   16.6  146.2   -5.9   180.1
 01 JAN 31  31:03:00:00     369    5.2      31   -1.4      193.8   15.6   16.6  146.2   -5.9   179.6
 01 JAN 31  31:04:00:00     365    4.8      33   -1.1      193.8   15.7   16.6  146.2   -5.9   179.0
 01 JAN 31  31:05:00:00     366    4.4      34   -1.3      193.8   15.9   16.6  146.2   -5.9   178.5
 01 JAN 31  31:06:00:00     366    4.0      34   -1.6      193.8   16.1   16.6  146.2   -5.9   177.9
 01 JAN 31  31:07:00:00     385   13.5      43    1.0      193.8   16.2   16.6  146.2   -5.9   177.4
 01 JAN 31  31:08:00:00     446   23.1      51    5.0      193.8   16.4   16.6  146.2   -5.9   176.8
 01 JAN 31  31:09:00:00     442   21.5      54    3.6      193.8   16.5   16.6  146.2   -6.0   176.3
 01 JAN 31  31:10:00:00     440   19.7      48    1.1      193.8   16.7   16.6  146.2   -6.0   175.7
 01 JAN 31  31:11:00:00     450   18.2      45    2.5      193.8   16.9   16.6  146.2   -6.0   175.2
 01 JAN 31  31:12:00:00     445   18.6      47    1.1      193.8   17.0   16.6  146.2   -6.0   174.6
 01 JAN 31  31:13:00:00     434   17.7      46    1.6      193.8   17.2   16.6  146.2   -6.0   174.1
 01 JAN 31  31:14:00:00     424   16.2      47    1.8      193.8   17.4   16.6  146.2   -6.0   173.5
 01 JAN 31  31:15:00:00     426   14.7      47    2.8      193.8   17.5   16.6  146.2   -6.0   173.0
 01 JAN 31  31:16:00:00     416   14.4      40    2.6      193.8   17.7   16.5  146.2   -6.0   172.4
 01 JAN 31  31:17:00:00     415   12.4      38    1.4      193.8   17.9   16.5  146.2   -6.0   171.9
 01 JAN 31  31:18:00:00     415   12.2      38    1.0      193.8   18.0   16.5  146.2   -6.0   171.3
 01 JAN 31  31:19:00:00     409   11.3      37    0.6      193.8   18.2   16.5  146.2   -6.0   170.8
 01 JAN 31  31:20:00:00     402   11.4      35    1.8      193.8   18.3   16.5  146.2   -6.0   170.2
 01 JAN 31  31:21:00:00     399   10.9      34    1.3      193.8   18.5   16.5  146.2   -6.0   169.7
 01 JAN 31  31:22:00:00     411   12.2      35   -0.9      193.7   18.7   16.5  146.2   -6.0   169.1
 01 JAN 31  31:23:00:00     401   13.1      32    0.9      193.7   18.8   16.5  146.2   -6.0   168.6
 01 FEB  1  32:00:00:00     404   12.7      34    1.1      193.7   19.0   16.5  146.2   -6.0   168.0
 01 FEB  1  32:01:00:00     408   11.5      36    0.5      193.7   19.2   16.5  146.2   -6.0   167.5
 01 FEB  1  32:02:00:00     404   11.8      36    1.0      193.7   19.3   16.5  146.2   -6.0   166.9
 01 FEB  1  32:03:00:00     407   11.0      36    0.2      193.7   19.5   16.5  146.2   -6.0   166.4
 01 FEB  1  32:04:00:00     410   10.9      35   -0.2      193.7   19.7   16.5  146.2   -6.0   165.8
 01 FEB  1  32:05:00:00     407    9.8      37   -0.7      193.7   19.8   16.5  146.2   -6.0   165.3
 01 FEB  1  32:06:00:00     399    8.6      39   -1.0      193.7   20.0   16.5  146.2   -6.0   164.7
 01 FEB  1  32:07:00:00     394    8.7      38   -2.7      193.7   20.1   16.5  146.2   -6.0   164.2
 01 FEB  1  32:08:00:00     397    8.4      35   -3.1      193.7   20.3   16.5  146.2   -6.0   163.6
 01 FEB  1  32:09:00:00     408    6.9      38   -2.3      193.7   20.5   16.4  146.2   -6.0   163.1
 01 FEB  1  32:10:00:00     410    6.5      39   -3.1      193.7   20.6   16.4  146.2   -6.0   162.5
 01 FEB  1  32:11:00:00     401    7.5      31   -1.3      193.7   20.8   16.4  146.2   -6.0   162.0
 01 FEB  1  32:12:00:00     401    8.5      31   -1.6      193.7   20.9   16.4  146.2   -6.0   161.4
 01 FEB  1  32:13:00:00     404    7.8      32   -1.9      193.7   21.1   16.4  146.2   -6.0   160.9
 01 FEB  1  32:14:00:00     395    7.7      29   -1.8      193.7   21.3   16.4  146.2   -6.0   160.3
 01 FEB  1  32:15:00:00     392    7.6      28   -2.0      193.7   21.4   16.4  146.2   -6.0   159.8
 01 FEB  1  32:16:00:00     393    7.0      28   -1.4      193.7   21.6   16.4  146.2   -6.0   159.2
 01 FEB  1  32:17:00:00     397    6.3      29   -1.7      193.7   21.8   16.4  146.2   -6.0   158.7
 01 FEB  1  32:18:00:00     391    7.3      28   -1.3      193.7   21.9   16.4  146.2   -6.0   158.1
 01 FEB  1  32:19:00:00     392    6.9      28   -0.6      193.7   22.1   16.4  146.2   -6.1   157.6
 01 FEB  1  32:20:00:00     421    5.0      38   -0.6      193.7   22.2   16.4  146.2   -6.1   157.0
 01 FEB  1  32:21:00:00     431    5.4      41   -1.1      193.7   22.4   16.4  146.2   -6.1   156.5
 01 FEB  1  32:22:00:00     432    4.9      42   -1.4      193.7   22.6   16.4  146.2   -6.1   155.9
 01 FEB  1  32:23:00:00     427    5.2      39   -0.9      193.7   22.7   16.4  146.2   -6.1   155.4
 01 FEB  2  33:00:00:00     414    4.6      36   -1.0      193.7   22.9   16.3  146.2   -6.1   154.8
 01 FEB  2  33:01:00:00     423    4.8      39   -0.6      193.7   23.0   16.3  146.2   -6.1   154.3
 01 FEB  2  33:02:00:00     415    6.0      36   -0.5      193.7   23.2   16.3  146.2   -6.1   153.7
 01 FEB  2  33:03:00:00     412    5.9      35   -0.7      193.7   23.4   16.3  146.2   -6.1   153.2
 01 FEB  2  33:04:00:00     407    5.8      34   -0.9      193.7   23.5   16.3  146.2   -6.1   152.6
 01 FEB  2  33:05:00:00     406    5.4      34   -1.0      193.7   23.7   16.3  146.2   -6.1   152.1
 01 FEB  2  33:06:00:00     418    5.0      37    0.9      193.7   23.8   16.3  146.2   -6.1   151.5
 01 FEB  2  33:07:00:00     417    4.7      37   -0.6      193.7   24.0   16.3  146.2   -6.1   151.0
 01 FEB  2  33:08:00:00     410    5.4      35   -1.5      193.7   24.2   16.3  146.2   -6.1   150.4
 01 FEB  2  33:09:00:00     408    5.1      34   -1.4      193.7   24.3   16.3  146.2   -6.1   149.9
 01 FEB  2  33:10:00:00     400    4.7      32   -0.6      193.7   24.5   16.3  146.2   -6.1   149.3
 01 FEB  2  33:11:00:00     401    4.7      32   -1.2      193.7   24.6   16.3  146.2   -6.1   148.8
 01 FEB  2  33:12:00:00     396    3.6      32   -1.3      193.7   24.8   16.3  146.2   -6.1   148.2
 01 FEB  2  33:13:00:00     397    3.3      32   -0.9      193.7   24.9   16.3  146.2   -6.1   147.7
 01 FEB  2  33:14:00:00     395    3.7      31   -1.5      193.7   25.1   16.2  146.2   -6.1   147.1
 01 FEB  2  33:15:00:00     392    4.2      31   -1.8      193.7   25.3   16.2  146.2   -6.1   146.6
 01 FEB  2  33:16:00:00     388    4.5      29   -1.5      193.7   25.4   16.2  146.2   -6.1   146.0
 01 FEB  2  33:17:00:00     385    4.5      29   -2.4      193.7   25.6   16.2  146.2   -6.1   145.5
 01 FEB  2  33:18:00:00     385    4.4      29   -1.3      193.7   25.7   16.2  146.2   -6.1   144.9
 01 FEB  2  33:19:00:00     381    4.6      27   -1.6      193.7   25.9   16.2  146.2   -6.1   144.4
 01 FEB  2  33:20:00:00     379    4.6      28   -2.0      193.7   26.1   16.2  146.2   -6.1   143.8
 01 FEB  2  33:21:00:00     377    4.1      29   -1.1      193.7   26.2   16.2  146.2   -6.1   143.3
 01 FEB  2  33:22:00:00     377    4.5      27   -1.5      193.7   26.4   16.2  146.2   -6.1   142.7
 01 FEB  2  33:23:00:00     378    4.3      28   -2.0      193.7   26.5   16.2  146.2   -6.1   142.2
 01 FEB  3  34:00:00:00     377    4.1      28   -1.7      193.7   26.7   16.2  146.2   -6.1   141.6
 01 FEB  3  34:01:00:00     370    4.2      28   -1.7      193.7   26.8   16.2  146.2   -6.1   141.1
 01 FEB  3  34:02:00:00     373    4.3      30   -2.0      193.7   27.0   16.1  146.2   -6.1   140.5
 01 FEB  3  34:03:00:00     374    4.9      28   -2.8      193.7   27.2   16.1  146.2   -6.1   140.0
 01 FEB  3  34:04:00:00     373    5.1      26   -2.9      193.7   27.3   16.1  146.2   -6.1   139.4
 01 FEB  3  34:05:00:00     368    4.5      26   -2.0      193.7   27.5   16.1  146.2   -6.1   138.9
 01 FEB  3  34:06:00:00     366    4.7      26   -2.2      193.7   27.6   16.1  146.2   -6.2   138.3
 01 FEB  3  34:07:00:00     364    4.4      29   -1.3      193.7   27.8   16.1  146.2   -6.2   137.8
 01 FEB  3  34:08:00:00     359    4.5      28   -1.1      193.7   27.9   16.1  146.2   -6.2   137.2
 01 FEB  3  34:09:00:00     355    3.8      29   -1.7      193.7   28.1   16.1  146.2   -6.2   136.7
 01 FEB  3  34:10:00:00     367    4.7      28   -1.6      193.7   28.2   16.1  146.2   -6.2   136.1
 01 FEB  3  34:11:00:00     362    4.7      27   -1.9      193.7   28.4   16.1  146.2   -6.2   135.6
 01 FEB  3  34:12:00:00     360    4.8      28   -2.5      193.7   28.6   16.1  146.2   -6.2   135.0
 01 FEB  3  34:13:00:00     374    5.0      29   -3.2      193.7   28.7   16.1  146.2   -6.2   134.5
 01 FEB  3  34:14:00:00     368    3.9      33   -2.0      193.7   28.9   16.0  146.2   -6.2   133.9
 01 FEB  3  34:15:00:00     354    4.5      29   -2.2      193.7   29.0   16.0  146.2   -6.2   133.4
 01 FEB  3  34:16:00:00     350    4.4      27   -2.1      193.7   29.2   16.0  146.2   -6.2   132.8
 01 FEB  3  34:17:00:00     351    4.4      27   -2.0      193.7   29.3   16.0  146.2   -6.2   132.3
 01 FEB  3  34:18:00:00     350    4.4      28   -1.7      193.7   29.5   16.0  146.2   -6.2   131.7
 01 FEB  3  34:19:00:00     343    4.6      27   -1.7      193.7   29.6   16.0  146.2   -6.2   131.2
 01 FEB  3  34:20:00:00     337    4.4      26   -1.4      193.7   29.8   16.0  146.2   -6.2   130.6
 01 FEB  3  34:21:00:00     338    4.8      26   -1.1      193.7   30.0   16.0  146.2   -6.2   130.1
 01 FEB  3  34:22:00:00     338    4.9      26   -1.3      193.7   30.1   16.0  146.2   -6.2   129.5
 01 FEB  3  34:23:00:00     340    5.2      26   -1.0      193.7   30.3   16.0  146.2   -6.2   129.0
 01 FEB  4  35:00:00:00     334    5.4      25   -0.4      193.7   30.4   16.0  146.2   -6.2   128.4
 01 FEB  4  35:01:00:00     330    5.6      25    0.5      193.7   30.6   15.9  146.2   -6.2   127.9
 01 FEB  4  35:02:00:00     331    5.9      25    1.4      193.7   30.7   15.9  146.2   -6.2   127.3
 01 FEB  4  35:03:00:00     328    6.0      24    0.1      193.7   30.9   15.9  146.2   -6.2   126.8
 01 FEB  4  35:04:00:00     332    6.1      25   -1.6      193.7   31.0   15.9  146.2   -6.2   126.2
 01 FEB  4  35:05:00:00     333    5.9      25   -1.8      193.7   31.2   15.9  146.2   -6.2   125.7
 01 FEB  4  35:06:00:00     334    6.0      25   -2.0      193.7   31.3   15.9  146.2   -6.2   125.1
 01 FEB  4  35:07:00:00     334    6.8      25   -2.4      193.7   31.5   15.9  146.2   -6.2   124.6
 01 FEB  4  35:08:00:00     329    6.6      24   -1.4      193.7   31.6   15.9  146.2   -6.2   124.0
 01 FEB  4  35:09:00:00     331    6.4      24   -1.0      193.7   31.8   15.9  146.2   -6.2   123.5
 01 FEB  4  35:10:00:00     328    6.6      24   -1.5      193.7   31.9   15.9  146.2   -6.2   122.9
 01 FEB  4  35:11:00:00     330    6.8      24   -1.8      193.7   32.1   15.8  146.2   -6.2   122.4
 01 FEB  4  35:12:00:00     332    7.0      25   -2.2      193.7   32.2   15.8  146.2   -6.2   121.8
 01 FEB  4  35:13:00:00     331    6.1      25   -1.5      193.7   32.4   15.8  146.3   -6.2   121.3
 01 FEB  4  35:14:00:00     329    6.4      24   -0.6      193.7   32.6   15.8  146.3   -6.2   120.7
 01 FEB  4  35:15:00:00     331    8.9      24    2.9      193.7   32.7   15.8  146.3   -6.2   120.2
 01 FEB  4  35:16:00:00     321    9.3      22    3.2      193.7   32.9   15.8  146.3   -6.2   119.6
 01 FEB  4  35:17:00:00     324    6.4      23    0.6      193.7   33.0   15.8  146.3   -6.2   119.1
 01 FEB  4  35:18:00:00     325    6.5      23   -1.1      193.7   33.2   15.8  146.3   -6.2   118.5
 01 FEB  4  35:19:00:00     320    6.9      22   -1.8      193.7   33.3   15.8  146.3   -6.3   118.0
 01 FEB  4  35:20:00:00     321    7.0      22   -1.3      193.7   33.5   15.8  146.3   -6.3   117.4
 01 FEB  4  35:21:00:00     317    7.7      21   -1.4      193.7   33.6   15.7  146.3   -6.3   116.9
 01 FEB  4  35:22:00:00     313    8.0      21    0.0      193.7   33.8   15.7  146.3   -6.3   116.3
 01 FEB  4  35:23:00:00     313    8.2      21    0.4      193.7   33.9   15.7  146.3   -6.3   115.8
 01 FEB  5  36:00:00:00     316    7.9      22    0.4      193.7   34.1   15.7  146.3   -6.3   115.2
 01 FEB  5  36:01:00:00     314    8.2      21    0.7      193.7   34.2   15.7  146.3   -6.3   114.7
 01 FEB  5  36:02:00:00     314    8.3      21    0.4      193.7   34.4   15.7  146.3   -6.3   114.1
 01 FEB  5  36:03:00:00     318    8.1      21    0.1      193.7   34.5   15.7  146.3   -6.3   113.6
 01 FEB  5  36:04:00:00     313    9.4      20   -0.3      193.7   34.7   15.7  146.3   -6.3   113.0
 01 FEB  5  36:05:00:00     321    9.8      22   -0.7      193.7   34.8   15.7  146.3   -6.3   112.5
 01 FEB  5  36:06:00:00     316   11.6      20    0.0      193.7   35.0   15.7  146.3   -6.3   111.9
 01 FEB  5  36:07:00:00     313   12.8      20    1.3      193.8   35.1   15.6  146.3   -6.3   111.4
 01 FEB  5  36:08:00:00     309   11.5      20    0.3      193.8   35.3   15.6  146.3   -6.3   110.8
 01 FEB  5  36:09:00:00     304   12.0      19    0.6      193.8   35.4   15.6  146.3   -6.3   110.3
 01 FEB  5  36:10:00:00     305   12.0      19    0.2      193.8   35.6   15.6  146.3   -6.3   109.7
 01 FEB  5  36:11:00:00     306   11.9      19   -0.5      193.8   35.7   15.6  146.3   -6.3   109.2
 01 FEB  5  36:12:00:00     299   12.6      19    0.4      193.8   35.9   15.6  146.3   -6.3   108.6
 01 FEB  5  36:13:00:00     298   11.3      19   -0.4      193.8   36.0   15.6  146.3   -6.3   108.1
 01 FEB  5  36:14:00:00     288   14.5      17    0.1      193.8   36.1   15.6  146.3   -6.3   107.5
 01 FEB  5  36:15:00:00     300   15.3      19    0.4      193.8   36.3   15.6  146.3   -6.3   107.0
 01 FEB  5  36:16:00:00     314   12.7      20    1.2      193.8   36.4   15.5  146.3   -6.3   106.4
 01 FEB  5  36:17:00:00     314   13.7      20    0.9      193.8   36.6   15.5  146.3   -6.3   105.9
 01 FEB  5  36:18:00:00     312   16.1      21   -0.8      193.8   36.7   15.5  146.3   -6.3   105.3
 01 FEB  5  36:19:00:00     313   15.7      21   -0.9      193.8   36.9   15.5  146.3   -6.3   104.8
 01 FEB  5  36:20:00:00     325   12.6      22   -1.5      193.8   37.0   15.5  146.3   -6.3   104.2
 01 FEB  5  36:21:00:00     331   10.1      24   -2.0      193.8   37.2   15.5  146.3   -6.3   103.7
 01 FEB  5  36:22:00:00     333   11.1      24   -2.4      193.8   37.3   15.5  146.3   -6.3   103.1
 01 FEB  5  36:23:00:00     343   14.6      24   -2.0      193.8   37.5   15.5  146.3   -6.3   102.6
 01 FEB  6  37:00:00:00     343   16.9      23   -1.9      193.8   37.6   15.4  146.3   -6.3   102.0
 01 FEB  6  37:01:00:00     354   21.1      25   -1.2      193.8   37.8   15.4  146.3   -6.3   101.5
 01 FEB  6  37:02:00:00     355   24.5      25    0.3      193.8   37.9   15.4  146.3   -6.3   100.9
 01 FEB  6  37:03:00:00     361   28.0      28    0.2      193.8   38.1   15.4  146.3   -6.3   100.4
 01 FEB  6  37:04:00:00     380   29.2      28   -1.1      193.8   38.2   15.4  146.3   -6.3    99.8
 01 FEB  6  37:05:00:00     403   28.7      39   -1.3      193.9   38.4   15.4  146.3   -6.3    99.3
 01 FEB  6  37:06:00:00     391   21.9      41    1.3      193.9   38.5   15.4  146.3   -6.3    98.7
 01 FEB  6  37:07:00:00     403   18.4      43    2.8      193.9   38.6   15.4  146.3   -6.3    98.2
 01 FEB  6  37:08:00:00     394   17.6      38    3.8      193.9   38.8   15.4  146.3   -6.3    97.6
 01 FEB  6  37:09:00:00     397   13.0      42    3.7      193.9   38.9   15.3  146.3   -6.3    97.1
 01 FEB  6  37:10:00:00     421   11.4      53    3.5      193.9   39.1   15.3  146.3   -6.4    96.5
 01 FEB  6  37:11:00:00     416   11.2      52    3.1      193.9   39.2   15.3  146.3   -6.4    96.0
 01 FEB  6  37:12:00:00     407    8.8      48    2.7      193.9   39.4   15.3  146.3   -6.4    95.4
 01 FEB  6  37:13:00:00     395    8.3      45    3.2      193.9   39.5   15.3  146.3   -6.4    94.9
 01 FEB  6  37:14:00:00     395   12.5      35   -2.2      193.9   39.7   15.3  146.3   -6.4    94.3
 01 FEB  6  37:15:00:00     409   14.4      37   -1.9      193.9   39.8   15.3  146.3   -6.4    93.8
 01 FEB  6  37:16:00:00     454    8.6      49   -4.3      193.9   40.0   15.3  146.3   -6.4    93.2
 01 FEB  6  37:17:00:00     492    9.8      61   -4.6      193.9   40.1   15.2  146.3   -6.4    92.7
 01 FEB  6  37:18:00:00     509    7.0      65   -3.1      193.9   40.2   15.2  146.3   -6.4    92.1
 01 FEB  6  37:19:00:00     506    8.9      66   -1.9      193.9   40.4   15.2  146.3   -6.4    91.6
 01 FEB  6  37:20:00:00     494   11.8      60   -3.7      193.9   40.5   15.2  146.3   -6.4    91.0
 01 FEB  6  37:21:00:00     458   11.1      54   -1.2      194.0   40.7   15.2  146.3   -6.4    90.5
 01 FEB  6  37:22:00:00     487   11.2      58   -2.3      194.0   40.8   15.2  146.3   -6.4    89.9
 01 FEB  6  37:23:00:00     470   10.9      52   -2.0      194.0   41.0   15.2  146.3   -6.4    89.4
 01 FEB  7  38:00:00:00     471    8.8      49   -1.3      194.0   41.1   15.2  146.3   -6.4    88.8
 01 FEB  7  38:01:00:00     457    8.0      45   -1.8      194.0   41.2   15.1  146.3   -6.4    88.3
 01 FEB  7  38:02:00:00     457    7.2      49   -0.2      194.0   41.4   15.1  146.3   -6.4    87.7
 01 FEB  7  38:03:00:00     490    7.3      49   -2.3      194.0   41.5   15.1  146.3   -6.4    87.2
 01 FEB  7  38:04:00:00     472    6.7      45   -2.0      194.0   41.7   15.1  146.3   -6.4    86.6
 01 FEB  7  38:05:00:00     489    6.2      52   -2.0      194.0   41.8   15.1  146.3   -6.4    86.1
 01 FEB  7  38:06:00:00     481    5.9      47   -2.0      194.0   42.0   15.1  146.3   -6.4    85.5
 01 FEB  7  38:07:00:00     465    5.6      49   -1.5      194.0   42.1   15.1  146.3   -6.4    85.0
 01 FEB  7  38:08:00:00     494    4.7      46   -1.1      194.0   42.2   15.1  146.3   -6.4    84.4
 01 FEB  7  38:09:00:00     502    5.1      46   -2.5      194.0   42.4   15.0  146.3   -6.4    83.8
 01 FEB  7  38:10:00:00     488    5.4      41   -2.6      194.1   42.5   15.0  146.3   -6.4    83.3
 01 FEB  7  38:11:00:00     497    4.8      47   -1.3      194.1   42.7   15.0  146.3   -6.4    82.7
 01 FEB  7  38:12:00:00     495    3.1      55   -0.6      194.1   42.8   15.0  146.3   -6.4    82.2
 01 FEB  7  38:13:00:00     492    3.4      54   -2.1      194.1   43.0   15.0  146.3   -6.4    81.6
 01 FEB  7  38:14:00:00     497    4.2      58   -3.4      194.1   43.1   15.0  146.3   -6.4    81.1
 01 FEB  7  38:15:00:00     489    3.7      51   -1.3      194.1   43.2   15.0  146.3   -6.4    80.5
 01 FEB  7  38:16:00:00     484    3.4      49   -1.3      194.1   43.4   14.9  146.3   -6.4    80.0
 01 FEB  7  38:17:00:00     475    3.5      46   -0.9      194.1   43.5   14.9  146.3   -6.4    79.4
 01 FEB  7  38:18:00:00     464    3.7      51   -0.9      194.1   43.7   14.9  146.3   -6.4    78.9
 01 FEB  7  38:19:00:00     461    4.7      46   -1.0      194.1   43.8   14.9  146.3   -6.4    78.3
 01 FEB  7  38:20:00:00     443    4.0      45   -2.1      194.1   43.9   14.9  146.3   -6.4    77.8
 01 FEB  7  38:21:00:00     440    4.7      45   -2.1      194.2   44.1   14.9  146.3   -6.4    77.2
 01 FEB  7  38:22:00:00     430    5.0      41   -2.6      194.2   44.2   14.9  146.3   -6.4    76.7
 01 FEB  7  38:23:00:00     430    4.3      39   -1.7      194.2   44.4   14.8  146.3   -6.4    76.1
 01 FEB  8  39:00:00:00     418    5.2      37   -2.2      194.2   44.5   14.8  146.3   -6.4    75.6
 01 FEB  8  39:01:00:00     416    6.0      36   -2.5      194.2   44.6   14.8  146.3   -6.4    75.0
 01 FEB  8  39:02:00:00     440    4.9      39   -0.3      194.2   44.8   14.8  146.3   -6.5    74.5
 01 FEB  8  39:03:00:00     428    4.5      37   -0.9      194.2   44.9   14.8  146.3   -6.5    73.9
 01 FEB  8  39:04:00:00     428    4.5      38    0.1      194.2   45.1   14.8  146.3   -6.5    73.4
 01 FEB  8  39:05:00:00     426    5.4      37   -2.3      194.2   45.2   14.8  146.3   -6.5    72.8
 01 FEB  8  39:06:00:00     429    4.9      35   -3.3      194.2   45.3   14.7  146.3   -6.5    72.3
 01 FEB  8  39:07:00:00     440    4.7      38   -0.4      194.3   45.5   14.7  146.3   -6.5    71.7
 01 FEB  8  39:08:00:00     431    5.1      37   -2.2      194.3   45.6   14.7  146.3   -6.5    71.2
 01 FEB  8  39:09:00:00     432    5.6      38   -0.7      194.3   45.8   14.7  146.3   -6.5    70.6
 01 FEB  8  39:10:00:00     437    6.8      39   -3.2      194.3   45.9   14.7  146.3   -6.5    70.1
 01 FEB  8  39:11:00:00     430    6.9      38   -3.2      194.3   46.0   14.7  146.3   -6.5    69.5
 01 FEB  8  39:12:00:00     426    5.9      37   -3.0      194.3   46.2   14.7  146.3   -6.5    69.0
 01 FEB  8  39:13:00:00     418    5.5      37   -2.4      194.3   46.3   14.6  146.3   -6.5    68.4
 01 FEB  8  39:14:00:00     420    5.5      37   -1.9      194.3   46.5   14.6  146.3   -6.5    67.9
 01 FEB  8  39:15:00:00     418    5.4      37   -1.2      194.3   46.6   14.6  146.3   -6.5    67.3
 01 FEB  8  39:16:00:00     417    5.9      37    0.3      194.4   46.7   14.6  146.3   -6.5    66.8
 01 FEB  8  39:17:00:00     424    6.4      38    0.1      194.4   46.9   14.6  146.3   -6.5    66.2
 01 FEB  8  39:18:00:00     415    6.5      37   -1.3      194.4   47.0   14.6  146.3   -6.5    65.7
 01 FEB  8  39:19:00:00     422    6.6      37   -0.5      194.4   47.1   14.6  146.3   -6.5    65.1
 01 FEB  8  39:20:00:00     414    6.8      36    0.0      194.4   47.3   14.5  146.4   -6.5    64.6
 01 FEB  8  39:21:00:00     409    6.3      35   -1.2      194.4   47.4   14.5  146.4   -6.5    64.0
 01 FEB  8  39:22:00:00     419    8.3      36   -3.3      194.4   47.6   14.5  146.4   -6.5    63.5
 01 FEB  8  39:23:00:00     418    8.2      36   -3.3      194.4   47.7   14.5  146.4   -6.5    62.9
 01 FEB  9  40:00:00:00     408    7.0      34   -1.9      194.5   47.8   14.5  146.4   -6.5    62.4
 01 FEB  9  40:01:00:00     408    7.5      34   -2.4      194.5   48.0   14.5  146.4   -6.5    61.8
 01 FEB  9  40:02:00:00     403    7.3      32   -2.7      194.5   48.1   14.5  146.4   -6.5    61.3
 01 FEB  9  40:03:00:00     413    6.9      36   -1.3      194.5   48.2   14.4  146.4   -6.5    60.7
 01 FEB  9  40:04:00:00     419    6.5      36   -1.2      194.5   48.4   14.4  146.4   -6.5    60.2
 01 FEB  9  40:05:00:00     418    5.6      36   -1.9      194.5   48.5   14.4  146.4   -6.5    59.6
 01 FEB  9  40:06:00:00     416    5.4      36   -1.1      194.5   48.7   14.4  146.4   -6.5    59.1
 01 FEB  9  40:07:00:00     420    5.7      37    0.0      194.5   48.8   14.4  146.4   -6.5    58.5
 01 FEB  9  40:08:00:00     418    5.7      37   -0.7      194.6   48.9   14.4  146.4   -6.5    58.0
 01 FEB  9  40:09:00:00     421    5.7      37    0.1      194.6   49.1   14.3  146.4   -6.5    57.4
 01 FEB  9  40:10:00:00     414    5.8      36    1.4      194.6   49.2   14.3  146.4   -6.5    56.9
 01 FEB  9  40:11:00:00     407    5.7      35    1.1      194.6   49.3   14.3  146.4   -6.5    56.3
 01 FEB  9  40:12:00:00     406    5.9      33   -0.3      194.6   49.5   14.3  146.4   -6.5    55.8
 01 FEB  9  40:13:00:00     421    5.4      36   -0.2      194.6   49.6   14.3  146.4   -6.5    55.2
 01 FEB  9  40:14:00:00     421    5.2      36    0.4      194.6   49.7   14.3  146.4   -6.5    54.7
 01 FEB  9  40:15:00:00     400    5.0      32   -1.9      194.7   49.9   14.3  146.4   -6.5    54.1
 01 FEB  9  40:16:00:00     420    5.2      34    2.2      194.7   50.0   14.2  146.4   -6.5    53.6
 01 FEB  9  40:17:00:00     424    4.9      36    2.5      194.7   50.2   14.2  146.4   -6.5    53.0
 01 FEB  9  40:18:00:00     421    4.9      37    1.2      194.7   50.3   14.2  146.4   -6.5    52.5
 01 FEB  9  40:19:00:00     420    4.7      35    1.1      194.7   50.4   14.2  146.4   -6.5    51.9
 01 FEB  9  40:20:00:00     411    4.6      34    0.2      194.7   50.6   14.2  146.4   -6.5    51.4
 01 FEB  9  40:21:00:00     412    4.6      34   -1.6      194.7   50.7   14.2  146.4   -6.6    50.8
 01 FEB  9  40:22:00:00     409    5.0      33   -1.9      194.8   50.8   14.1  146.4   -6.6    50.3
 01 FEB  9  40:23:00:00     419    6.0      37    0.2      194.8   51.0   14.1  146.4   -6.6    49.7
 01 FEB 10  41:00:00:00     422    5.6      38    0.1      194.8   51.1   14.1  146.4   -6.6    49.2
 01 FEB 10  41:01:00:00     423    5.3      39   -1.6      194.8   51.2   14.1  146.4   -6.6    48.6
 01 FEB 10  41:02:00:00     423    6.1      39    1.3      194.8   51.4   14.1  146.4   -6.6    48.1
 01 FEB 10  41:03:00:00     428    5.8      40   -0.9      194.8   51.5   14.1  146.4   -6.6    47.5
 01 FEB 10  41:04:00:00     422    5.5      39   -0.9      194.9   51.6   14.0  146.4   -6.6    47.0
 01 FEB 10  41:05:00:00     422    4.9      39   -0.7      194.9   51.8   14.0  146.4   -6.6    46.4
 01 FEB 10  41:06:00:00     420    5.8      38   -0.4      194.9   51.9   14.0  146.4   -6.6    45.9
 01 FEB 10  41:07:00:00     426    5.9      39   -0.7      194.9   52.0   14.0  146.4   -6.6    45.3
 01 FEB 10  41:08:00:00     428    6.9      37    2.8      194.9   52.2   14.0  146.4   -6.6    44.8
 01 FEB 10  41:09:00:00     426    6.3      38    1.5      194.9   52.3   14.0  146.4   -6.6    44.2
 01 FEB 10  41:10:00:00     411    5.3      36   -1.6      194.9   52.4   13.9  146.4   -6.6    43.7
 01 FEB 10  41:11:00:00     413    5.7      35    0.0      195.0   52.6   13.9  146.4   -6.6    43.1
 01 FEB 10  41:12:00:00     408    5.9      32    1.9      195.0   52.7   13.9  146.4   -6.6    42.6
 01 FEB 10  41:13:00:00     406    6.2      33    2.0      195.0   52.8   13.9  146.4   -6.6    42.0
 01 FEB 10  41:14:00:00     405    7.1      32    2.9      195.0   53.0   13.9  146.4   -6.6    41.5
 01 FEB 10  41:15:00:00     393    7.0      28    2.0      195.0   53.1   13.9  146.4   -6.6    40.9
 01 FEB 10  41:16:00:00     396    6.3      30   -0.2      195.0   53.2   13.8  146.4   -6.6    40.4
 01 FEB 10  41:17:00:00     397    6.1      30   -0.4      195.1   53.4   13.8  146.4   -6.6    39.8
 01 FEB 10  41:18:00:00     392    5.9      28   -0.5      195.1   53.5   13.8  146.4   -6.6    39.3
 01 FEB 10  41:19:00:00     394    5.0      30   -0.3      195.1   53.6   13.8  146.4   -6.6    38.7
 01 FEB 10  41:20:00:00     396    5.6      30   -1.0      195.1   53.8   13.8  146.4   -6.6    38.2
 01 FEB 10  41:21:00:00     395    5.1      30   -0.3      195.1   53.9   13.8  146.4   -6.6    37.6
 01 FEB 10  41:22:00:00     391    6.3      30    0.7      195.1   54.0   13.7  146.4   -6.6    37.1
 01 FEB 10  41:23:00:00     391    7.1      29    2.9      195.2   54.2   13.7  146.4   -6.6    36.5
 01 FEB 11  42:00:00:00     400    6.1      30    1.1      195.2   54.3   13.7  146.4   -6.6    36.0
 01 FEB 11  42:01:00:00     394    6.2      29    0.5      195.2   54.4   13.7  146.4   -6.6    35.4
 01 FEB 11  42:02:00:00     389    6.6      29   -3.0      195.2   54.5   13.7  146.4   -6.6    34.9
 01 FEB 11  42:03:00:00     392    7.0      29   -3.4      195.2   54.7   13.6  146.4   -6.6    34.3
 01 FEB 11  42:04:00:00     392    6.9      29   -2.2      195.3   54.8   13.6  146.4   -6.6    33.8
 01 FEB 11  42:05:00:00     394    6.9      29    1.0      195.3   54.9   13.6  146.4   -6.6    33.2
 01 FEB 11  42:06:00:00     399    6.5      30    1.2      195.3   55.1   13.6  146.4   -6.6    32.7
 01 FEB 11  42:07:00:00     409    5.8      32   -0.4      195.3   55.2   13.6  146.4   -6.6    32.1
 01 FEB 11  42:08:00:00     396    6.5      32    0.3      195.3   55.3   13.6  146.4   -6.6    31.6
 01 FEB 11  42:09:00:00     395    6.1      30    0.6      195.3   55.5   13.5  146.4   -6.6    31.0
 01 FEB 11  42:10:00:00     401    5.4      31   -1.4      195.4   55.6   13.5  146.4   -6.6    30.5
 01 FEB 11  42:11:00:00     389    6.4      28   -1.6      195.4   55.7   13.5  146.4   -6.6    29.9
 01 FEB 11  42:12:00:00     392    6.3      30   -1.7      195.4   55.9   13.5  146.4   -6.6    29.4
 01 FEB 11  42:13:00:00     398    5.8      32   -2.1      195.4   56.0   13.5  146.4   -6.6    28.8
 01 FEB 11  42:14:00:00     388    6.2      28   -1.9      195.4   56.1   13.5  146.4   -6.6    28.3
 01 FEB 11  42:15:00:00     398    6.4      30   -2.3      195.5   56.2   13.4  146.4   -6.6    27.7
 01 FEB 11  42:16:00:00     402    5.6      31   -0.6      195.5   56.4   13.4  146.4   -6.6    27.2
 01 FEB 11  42:17:00:00     400    5.5      36   -0.3      195.5   56.5   13.4  146.4   -6.6    26.6
 01 FEB 11  42:18:00:00     398    7.7      30    2.3      195.5   56.6   13.4  146.4   -6.6    26.1
 01 FEB 11  42:19:00:00     419    6.0      34   -0.3      195.5   56.8   13.4  146.4   -6.7    25.5
 01 FEB 11  42:20:00:00     409    7.2      33   -0.9      195.6   56.9   13.3  146.4   -6.7    25.0
 01 FEB 11  42:21:00:00     394    7.1      29   -0.4      195.6   57.0   13.3  146.4   -6.7    24.4
 01 FEB 11  42:22:00:00     396    8.0      29    0.2      195.6   57.2   13.3  146.4   -6.7    23.9
 01 FEB 11  42:23:00:00     404    8.0      32   -2.5      195.6   57.3   13.3  146.4   -6.7    23.3
 01 FEB 12  43:00:00:00     416    8.1      34   -1.3      195.6   57.4   13.3  146.4   -6.7    22.8
 01 FEB 12  43:01:00:00     407    7.8      33   -1.4      195.7   57.5   13.3  146.4   -6.7    22.2
 01 FEB 12  43:02:00:00     408    8.2      33   -1.8      195.7   57.7   13.2  146.4   -6.7    21.7
 01 FEB 12  43:03:00:00     408    8.3      33   -1.9      195.7   57.8   13.2  146.4   -6.7    21.1
 01 FEB 12  43:04:00:00     399    8.9      30   -3.8      195.7   57.9   13.2  146.4   -6.7    20.6
 01 FEB 12  43:05:00:00     395    9.3      30   -4.0      195.7   58.1   13.2  146.4   -6.7    20.0
 01 FEB 12  43:06:00:00     401    7.4      30   -3.4      195.8   58.2   13.2  146.4   -6.7    19.5
 01 FEB 12  43:07:00:00     408    8.5      32   -4.0      195.8   58.3   13.1  146.4   -6.7    18.9
 01 FEB 12  43:08:00:00     401    7.3      31   -2.1      195.8   58.4   13.1  146.4   -6.7    18.4
 01 FEB 12  43:09:00:00     399    8.8      33   -3.0      195.8   58.6   13.1  146.4   -6.7    17.8
 01 FEB 12  43:10:00:00     409    8.8      36   -3.3      195.8   58.7   13.1  146.4   -6.7    17.3
 01 FEB 12  43:11:00:00     408    7.7      33   -1.7      195.9   58.8   13.1  146.4   -6.7    16.7
 01 FEB 12  43:12:00:00     412    6.2      36   -2.2      195.9   59.0   13.0  146.4   -6.7    16.2
 01 FEB 12  43:13:00:00     412    7.0      36    0.1      195.9   59.1   13.0  146.4   -6.7    15.6
 01 FEB 12  43:14:00:00     417    7.8      37   -3.9      195.9   59.2   13.0  146.4   -6.7    15.1
 01 FEB 12  43:15:00:00     423    7.6      36   -2.5      196.0   59.3   13.0  146.4   -6.7    14.5
 01 FEB 12  43:16:00:00     422    6.7      39   -1.9      196.0   59.5   13.0  146.4   -6.7    14.0
 01 FEB 12  43:17:00:00     418    5.8      38   -1.3      196.0   59.6   12.9  146.4   -6.7    13.4
 01 FEB 12  43:18:00:00     419    6.5      38    0.8      196.0   59.7   12.9  146.4   -6.7    12.9
 01 FEB 12  43:19:00:00     411    6.2      36    1.0      196.0   59.8   12.9  146.4   -6.7    12.3
 01 FEB 12  43:20:00:00     426    6.6      38   -0.4      196.1   60.0   12.9  146.5   -6.7    11.8
 01 FEB 12  43:21:00:00     451    6.7      37   -1.8      196.1   60.1   12.9  146.5   -6.7    11.2
 01 FEB 12  43:22:00:00     454    7.3      35   -2.4      196.1   60.2   12.9  146.5   -6.7    10.7
 01 FEB 12  43:23:00:00     458   12.1      34   -1.6      196.1   60.4   12.8  146.5   -6.7    10.1
 01 FEB 13  44:00:00:00     451    5.5      33   -0.8      196.1   60.5   12.8  146.5   -6.7     9.6
 01 FEB 13  44:01:00:00     467    5.9      37   -0.8      196.2   60.6   12.8  146.5   -6.7     9.0
 01 FEB 13  44:02:00:00     462    6.5      43   -1.6      196.2   60.7   12.8  146.5   -6.7     8.5
 01 FEB 13  44:03:00:00     487    6.1      50   -2.0      196.2   60.9   12.8  146.5   -6.7     7.9
 01 FEB 13  44:04:00:00     576    8.1      61   -1.5      196.2   61.0   12.7  146.5   -6.7     7.4
 01 FEB 13  44:05:00:00     583    7.8      60    0.9      196.3   61.1   12.7  146.5   -6.7     6.8
 01 FEB 13  44:06:00:00     570    6.5      61    2.5      196.3   61.2   12.7  146.5   -6.7     6.3
 01 FEB 13  44:07:00:00     539    6.2      55    0.2      196.3   61.4   12.7  146.5   -6.7     5.7
 01 FEB 13  44:08:00:00     519    5.6      53    0.1      196.3   61.5   12.7  146.5   -6.7     5.2
 01 FEB 13  44:09:00:00     480    7.1      51   -1.7      196.3   61.6   12.6  146.5   -6.7     4.6
 01 FEB 13  44:10:00:00     479    9.5      51   -1.5      196.4   61.7   12.6  146.5   -6.7     4.1
 01 FEB 13  44:11:00:00     495    8.7      46   -1.0      196.4   61.9   12.6  146.5   -6.7     3.5
 01 FEB 13  44:12:00:00     464    9.5      44   -1.9      196.4   62.0   12.6  146.5   -6.7     3.0
 01 FEB 13  44:13:00:00     476   12.5      52    3.5      196.4   62.1   12.6  146.5   -6.7     2.4
 01 FEB 13  44:14:00:00     567    4.8      76    0.4      196.5   62.2   12.5  146.5   -6.7     1.9
 01 FEB 13  44:15:00:00     573    5.1      71   -0.6      196.5   62.4   12.5  146.5   -6.7     1.3
 01 FEB 13  44:16:00:00     531    6.9      75    3.0      196.5   62.5   12.5  146.5   -6.7     0.8
 01 FEB 13  44:17:00:00     533    6.6      57   -2.0      196.5   62.6   12.5  146.5   -6.7     0.2
 01 FEB 13  44:18:00:00     536    6.5      54   -1.7      196.6   62.7   12.5  146.5   -6.7   359.7
 01 FEB 13  44:19:00:00     544    6.1      53   -0.8      196.6   62.9   12.4  146.5   -6.7   359.1